Time;durP1;ratioP1;P1;durP2;ratioP2;P2;SDS_P1;SDS_P2;PMS_P1;PMS_P2;Temp;Humidity;BMP_temperature;BMP_pressure;BME280_temperature;BME280_humidity;BME280_pressure;Samples;Min_cycle;Max_cycle;Signal;HPM_P1;HPM_P2
2023/01/09 00:01:23;;;;;;;;;;;24.30;63.70;;;;;;6304289;22;19914;-70
2023/01/09 00:03:50;;;;;;;;;;;24.40;62.30;;;;;;6304218;22;19985;-69
2023/01/09 00:06:17;;;;;;;;;;;24.30;60.80;;;;;;6303492;22;19903;-69
2023/01/09 00:08:43;;;;;;;;;;;24.40;60.90;;;;;;6302986;22;19911;-69
2023/01/09 00:11:10;;;;;;;;;;;24.50;60.70;;;;;;6302879;22;20016;-69
2023/01/09 00:13:37;;;;;;;;;;;24.40;59.30;;;;;;6303846;22;20275;-68
2023/01/09 00:16:04;;;;;;;;;;;24.50;60.80;;;;;;6303461;22;20381;-69
2023/01/09 00:18:31;;;;;;;;;;;24.50;59.70;;;;;;6304156;22;19918;-69
2023/01/09 00:21:03;;;;;;;;;;;24.50;59.30;;;;;;6304496;22;20005;-68
2023/01/09 00:23:30;;;;;;;;;;;24.60;60.60;;;;;;6304541;22;19910;-68
2023/01/09 00:26:13;;;;;;;;;;;24.60;60.70;;;;;;6304231;22;19907;-69
2023/01/09 00:28:39;;;;;;;;;;;24.50;61.00;;;;;;6303892;22;19918;-69
2023/01/09 00:31:06;;;;;;;;;;;24.60;62.50;;;;;;6303571;22;19907;-69
2023/01/09 00:33:34;;;;;;;;;;;24.70;62.40;;;;;;6303250;22;19910;-69
2023/01/09 00:36:00;;;;;;;;;;;24.70;63.30;;;;;;6303005;22;19907;-70
2023/01/09 00:38:27;;;;;;;;;;;24.70;63.30;;;;;;6302767;22;19955;-70
2023/01/09 00:40:54;;;;;;;;;;;24.80;62.30;;;;;;6301844;22;19914;-84
2023/01/09 00:43:20;;;;;;;;;;;24.70;63.20;;;;;;6274494;22;20108;-70
2023/01/09 00:45:47;;;;;;;;;;;24.80;63.80;;;;;;6274891;22;19930;-69
2023/01/09 00:48:15;;;;;;;;;;;24.80;63.00;;;;;;6302694;22;19907;-70
2023/01/09 00:50:41;;;;;;;;;;;24.80;63.10;;;;;;6303060;22;19922;-70
2023/01/09 00:53:19;;;;;;;;;;;24.80;62.70;;;;;;6301798;22;19907;-69
2023/01/09 00:55:45;;;;;;;;;;;24.80;64.10;;;;;;6275213;22;19931;-70
2023/01/09 00:58:12;;;;;;;;;;;24.80;64.30;;;;;;6302244;22;19911;-70
2023/01/09 01:00:38;;;;;;;;;;;24.80;62.50;;;;;;6303894;22;19982;-70
2023/01/09 01:03:05;;;;;;;;;;;24.80;62.40;;;;;;6303895;22;19949;-69
2023/01/09 01:08:17;;;;;;;;;;;24.80;61.00;;;;;;6303741;22;19913;-69
2023/01/09 01:10:43;;;;;;;;;;;24.80;61.80;;;;;;6301684;22;19919;-69
2023/01/09 01:13:10;;;;;;;;;;;24.80;62.50;;;;;;6303402;22;19930;-69
2023/01/09 01:15:43;;;;;;;;;;;24.80;62.20;;;;;;6303473;22;20311;-69
2023/01/09 01:18:10;;;;;;;;;;;24.90;64.50;;;;;;6303115;22;19919;-69
2023/01/09 01:20:39;;;;;;;;;;;24.90;63.60;;;;;;6302910;22;19907;-69
2023/01/09 01:23:05;;;;;;;;;;;24.90;62.30;;;;;;6305323;22;19903;-69
2023/01/09 01:25:32;;;;;;;;;;;24.90;63.70;;;;;;6306123;22;19949;-70
2023/01/09 01:27:58;;;;;;;;;;;24.90;63.60;;;;;;6305670;22;19982;-69
2023/01/09 01:30:26;;;;;;;;;;;24.90;64.30;;;;;;6305427;22;20313;-69
2023/01/09 01:32:52;;;;;;;;;;;24.80;64.10;;;;;;6305561;22;19964;-69
2023/01/09 01:35:19;;;;;;;;;;;24.80;65.20;;;;;;6305808;22;19953;-69
2023/01/09 01:37:48;;;;;;;;;;;24.80;64.00;;;;;;6305472;22;20385;-68
2023/01/09 01:40:15;;;;;;;;;;;24.80;64.70;;;;;;6303769;22;19907;-69
2023/01/09 01:42:47;;;;;;;;;;;24.80;63.70;;;;;;6306025;22;19907;-68
2023/01/09 01:45:15;;;;;;;;;;;24.80;63.60;;;;;;6306154;22;20326;-68
2023/01/09 01:47:44;;;;;;;;;;;24.80;63.70;;;;;;6305681;22;19902;-68
2023/01/09 01:50:13;;;;;;;;;;;24.80;62.20;;;;;;6278820;22;19959;-71
2023/01/09 01:52:39;;;;;;;;;;;24.80;61.90;;;;;;6278371;22;19982;-70
2023/01/09 01:55:06;;;;;;;;;;;24.80;63.10;;;;;;6305983;22;19969;-69
2023/01/09 01:57:33;;;;;;;;;;;24.80;61.60;;;;;;6278532;22;19915;-69
2023/01/09 02:00:01;;;;;;;;;;;24.80;62.50;;;;;;6278432;22;20215;-70
2023/01/09 02:02:28;;;;;;;;;;;24.80;63.70;;;;;;6278623;22;20344;-70
2023/01/09 02:04:55;;;;;;;;;;;24.80;63.70;;;;;;6305340;22;19995;-70
2023/01/09 02:07:22;;;;;;;;;;;24.80;63.30;;;;;;6278148;22;19903;-71
2023/01/09 02:09:48;;;;;;;;;;;24.80;63.00;;;;;;6303782;22;19911;-70
2023/01/09 02:12:15;;;;;;;;;;;24.80;63.30;;;;;;6278307;22;19911;-69
2023/01/09 02:14:42;;;;;;;;;;;24.80;64.10;;;;;;6305672;22;20233;-70
2023/01/09 02:17:26;;;;;;;;;;;24.80;62.90;;;;;;6305680;22;20267;-70
2023/01/09 02:20:11;;;;;;;;;;;24.80;63.70;;;;;;6305474;22;19914;-70
2023/01/09 02:22:47;;;;;;;;;;;24.80;63.50;;;;;;6305382;22;19930;-70
2023/01/09 02:25:19;;;;;;;;;;;24.80;65.00;;;;;;6304963;22;19913;-70
2023/01/09 02:27:49;;;;;;;;;;;24.80;63.90;;;;;;6305194;22;20232;-70
2023/01/09 02:30:33;;;;;;;;;;;24.80;63.80;;;;;;6303494;22;20244;-70
2023/01/09 02:33:18;;;;;;;;;;;24.80;66.20;;;;;;6305236;22;19903;-69
2023/01/09 02:35:49;;;;;;;;;;;24.80;65.30;;;;;;6304922;22;20326;-69
2023/01/09 02:38:23;;;;;;;;;;;24.90;64.60;;;;;;6277757;22;19925;-69
2023/01/09 02:40:55;;;;;;;;;;;24.90;65.50;;;;;;6303098;22;19903;-68
2023/01/09 02:43:22;;;;;;;;;;;24.90;63.30;;;;;;6277629;22;19914;-69
2023/01/09 02:45:48;;;;;;;;;;;24.90;64.40;;;;;;6277724;22;19968;-68
2023/01/09 02:48:15;;;;;;;;;;;25.00;65.20;;;;;;6304755;22;20373;-69
2023/01/09 02:50:45;;;;;;;;;;;25.00;65.70;;;;;;6304432;22;19917;-69
2023/01/09 02:53:24;;;;;;;;;;;25.00;64.10;;;;;;6277350;22;19911;-69
2023/01/09 02:56:09;;;;;;;;;;;24.90;64.30;;;;;;6304836;22;19915;-69
2023/01/09 02:58:45;;;;;;;;;;;24.90;63.20;;;;;;6304969;22;19998;-69
2023/01/09 03:01:17;;;;;;;;;;;24.90;63.50;;;;;;6304706;22;19911;-69
2023/01/09 03:03:48;;;;;;;;;;;25.00;64.40;;;;;;6277923;22;19907;-69
2023/01/09 03:06:15;;;;;;;;;;;24.90;63.20;;;;;;6305287;22;19911;-68
2023/01/09 03:08:45;;;;;;;;;;;24.90;64.50;;;;;;6304850;22;19907;-69
2023/01/09 03:11:12;;;;;;;;;;;24.90;64.30;;;;;;6274999;22;19922;-69
2023/01/09 03:13:41;;;;;;;;;;;24.90;65.00;;;;;;6277821;22;19914;-70
2023/01/09 03:16:09;;;;;;;;;;;24.90;65.20;;;;;;6304659;22;19906;-70
2023/01/09 03:18:35;;;;;;;;;;;24.90;64.60;;;;;;6304111;22;19964;-69
2023/01/09 03:21:02;;;;;;;;;;;24.90;64.60;;;;;;6275817;22;19907;-69
2023/01/09 03:23:44;;;;;;;;;;;24.90;65.40;;;;;;6276433;22;19926;-70
2023/01/09 03:26:10;;;;;;;;;;;24.90;65.50;;;;;;6303463;22;19907;-70
2023/01/09 03:28:37;;;;;;;;;;;24.90;64.30;;;;;;6303517;22;19914;-69
2023/01/09 03:31:04;;;;;;;;;;;24.90;62.90;;;;;;6303630;22;19907;-70
2023/01/09 03:33:30;;;;;;;;;;;24.90;64.70;;;;;;6303883;22;19907;-70
2023/01/09 03:35:57;;;;;;;;;;;24.90;65.40;;;;;;6304468;22;19911;-69
2023/01/09 03:38:24;;;;;;;;;;;24.90;65.30;;;;;;6303995;22;19915;-70
2023/01/09 03:40:50;;;;;;;;;;;24.90;65.00;;;;;;6302824;22;19911;-70
2023/01/09 03:43:17;;;;;;;;;;;24.90;64.30;;;;;;6303789;22;19914;-69
2023/01/09 03:45:43;;;;;;;;;;;24.80;65.40;;;;;;6304485;22;19906;-71
2023/01/09 03:48:10;;;;;;;;;;;24.80;64.70;;;;;;6304145;22;19907;-69
2023/01/09 03:50:36;;;;;;;;;;;24.90;65.80;;;;;;6303408;22;19914;-70
2023/01/09 03:53:03;;;;;;;;;;;24.80;65.00;;;;;;6303118;22;19907;-69
2023/01/09 03:55:30;;;;;;;;;;;24.80;65.50;;;;;;6304659;22;19939;-69
2023/01/09 03:57:56;;;;;;;;;;;24.90;66.00;;;;;;6304669;22;19919;-68
2023/01/09 04:00:23;;;;;;;;;;;24.80;65.40;;;;;;6303891;22;19911;-68
2023/01/09 04:02:49;;;;;;;;;;;24.90;66.10;;;;;;6304607;22;19918;-68
2023/01/09 04:05:16;;;;;;;;;;;24.90;63.20;;;;;;6304234;22;19948;-68
2023/01/09 04:07:43;;;;;;;;;;;24.90;62.30;;;;;;6304916;22;19906;-69
2023/01/09 04:10:10;;;;;;;;;;;24.90;63.60;;;;;;6301587;22;19907;-69
2023/01/09 04:12:37;;;;;;;;;;;24.90;65.00;;;;;;6304344;22;19926;-68
2023/01/09 04:15:04;;;;;;;;;;;24.90;64.30;;;;;;6276830;22;19903;-68
2023/01/09 04:17:30;;;;;;;;;;;24.80;65.20;;;;;;6304546;22;19936;-68
2023/01/09 04:19:58;;;;;;;;;;;24.80;63.80;;;;;;6304665;22;19952;-68
2023/01/09 04:22:24;;;;;;;;;;;24.80;64.60;;;;;;6303907;22;19981;-69
2023/01/09 04:24:51;;;;;;;;;;;24.80;64.70;;;;;;6305638;22;19929;-70
2023/01/09 04:27:17;;;;;;;;;;;24.80;62.30;;;;;;6305882;22;19982;-70
2023/01/09 04:29:44;;;;;;;;;;;24.80;62.80;;;;;;6305333;22;19903;-69
2023/01/09 04:32:11;;;;;;;;;;;24.80;64.10;;;;;;6305520;22;19977;-70
2023/01/09 04:34:38;;;;;;;;;;;24.80;61.40;;;;;;6306008;22;19907;-70
2023/01/09 04:37:05;;;;;;;;;;;24.80;62.50;;;;;;6305010;22;19911;-70
2023/01/09 04:39:31;;;;;;;;;;;24.90;61.80;;;;;;6305565;22;19980;-69
2023/01/09 04:41:58;;;;;;;;;;;24.90;62.40;;;;;;6305364;22;19910;-69
2023/01/09 04:44:27;;;;;;;;;;;25.00;61.90;;;;;;6305253;22;19903;-70
2023/01/09 04:46:54;;;;;;;;;;;24.90;62.60;;;;;;6305922;22;20242;-70
2023/01/09 04:49:21;;;;;;;;;;;24.80;61.70;;;;;;6304533;22;19903;-70
2023/01/09 04:51:47;;;;;;;;;;;24.80;62.20;;;;;;6276516;22;20226;-70
2023/01/09 04:54:14;;;;;;;;;;;24.80;63.60;;;;;;6303068;22;19907;-69
2023/01/09 04:56:41;;;;;;;;;;;24.70;63.20;;;;;;6303056;22;19997;-69
2023/01/09 04:59:07;;;;;;;;;;;24.70;63.30;;;;;;6303461;22;20389;-69
2023/01/09 05:01:34;;;;;;;;;;;24.70;63.90;;;;;;6304092;22;19910;-69
2023/01/09 05:04:01;;;;;;;;;;;24.70;64.20;;;;;;6304819;22;19911;-70
2023/01/09 05:06:27;;;;;;;;;;;24.70;64.70;;;;;;6306421;22;19903;-69
2023/01/09 05:08:55;;;;;;;;;;;24.70;64.10;;;;;;6306431;22;19938;-70
2023/01/09 05:14:01;;;;;;;;;;;24.70;65.30;;;;;;6304451;22;20250;-70
2023/01/09 05:16:27;;;;;;;;;;;24.70;63.40;;;;;;6305678;22;19922;-70
2023/01/09 05:18:56;;;;;;;;;;;24.70;63.20;;;;;;6305041;22;19929;-69
2023/01/09 05:21:23;;;;;;;;;;;24.70;63.90;;;;;;6306015;22;19907;-70
2023/01/09 05:23:49;;;;;;;;;;;24.70;61.50;;;;;;6305848;22;20291;-69
2023/01/09 05:26:16;;;;;;;;;;;24.70;62.00;;;;;;6306064;22;19903;-70
2023/01/09 05:28:43;;;;;;;;;;;24.70;63.50;;;;;;6306259;22;19903;-70
2023/01/09 05:31:09;;;;;;;;;;;24.70;62.60;;;;;;6306433;22;19903;-69
2023/01/09 05:33:36;;;;;;;;;;;24.70;63.00;;;;;;6306250;22;19923;-69
2023/01/09 05:36:02;;;;;;;;;;;24.60;62.90;;;;;;6306408;22;19903;-69
2023/01/09 05:38:29;;;;;;;;;;;24.60;63.80;;;;;;6305898;22;19918;-70
2023/01/09 05:40:55;;;;;;;;;;;24.60;63.60;;;;;;6305992;22;20242;-70
2023/01/09 05:43:22;;;;;;;;;;;24.60;63.80;;;;;;6306186;22;19955;-70
2023/01/09 05:45:49;;;;;;;;;;;24.50;63.60;;;;;;6306078;22;19924;-70
2023/01/09 05:48:15;;;;;;;;;;;24.50;64.70;;;;;;6306179;22;19907;-70
2023/01/09 05:50:42;;;;;;;;;;;24.50;64.70;;;;;;6305887;22;19911;-70
2023/01/09 05:53:08;;;;;;;;;;;24.40;64.50;;;;;;6278645;22;19930;-70
2023/01/09 05:55:35;;;;;;;;;;;24.50;65.20;;;;;;6305989;22;19957;-70
2023/01/09 05:58:02;;;;;;;;;;;24.50;65.20;;;;;;6306036;22;19938;-70
2023/01/09 06:00:28;;;;;;;;;;;24.50;65.00;;;;;;6306046;22;19903;-70
2023/01/09 06:02:55;;;;;;;;;;;24.50;65.40;;;;;;6306000;22;20215;-70
2023/01/09 06:05:21;;;;;;;;;;;24.60;63.80;;;;;;6304557;22;19910;-71
2023/01/09 06:07:48;;;;;;;;;;;24.50;63.70;;;;;;6304418;22;20342;-70
2023/01/09 06:10:15;;;;;;;;;;;24.40;65.00;;;;;;6305381;22;19918;-70
2023/01/09 06:12:43;;;;;;;;;;;24.40;65.30;;;;;;6305619;22;19911;-69
2023/01/09 06:37:25;;;;;;;;;;;24.10;66.60;;;;;;6303460;22;19957;-71
2023/01/09 06:39:53;;;;;;;;;;;24.00;67.40;;;;;;6307232;22;20335;-70
2023/01/09 06:42:20;;;;;;;;;;;24.00;66.60;;;;;;6306312;22;20369;-69
2023/01/09 06:44:47;;;;;;;;;;;24.00;67.10;;;;;;6306980;22;20311;-70
2023/01/09 06:47:14;;;;;;;;;;;24.00;66.60;;;;;;6307032;22;19907;-69
2023/01/09 06:49:40;;;;;;;;;;;24.00;66.50;;;;;;6307000;22;19903;-68
2023/01/09 06:52:07;;;;;;;;;;;23.90;67.00;;;;;;6307066;22;19903;-69
2023/01/09 06:54:34;;;;;;;;;;;23.90;66.40;;;;;;6307208;22;19912;-70
2023/01/09 06:57:00;;;;;;;;;;;23.90;66.60;;;;;;6306308;22;19911;-70
2023/01/09 06:59:27;;;;;;;;;;;23.90;67.50;;;;;;6304561;22;20318;-70
2023/01/09 07:01:53;;;;;;;;;;;23.90;67.30;;;;;;6307341;22;19903;-71
2023/01/09 07:04:23;;;;;;;;;;;23.80;67.50;;;;;;6307100;22;20303;-70
2023/01/09 07:06:49;;;;;;;;;;;23.80;67.80;;;;;;6304272;22;19977;-68
2023/01/09 07:09:16;;;;;;;;;;;23.80;65.30;;;;;;6306078;22;19907;-71
2023/01/09 07:11:42;;;;;;;;;;;23.70;66.20;;;;;;6305423;22;19903;-70
2023/01/09 07:14:09;;;;;;;;;;;23.70;66.40;;;;;;6307097;22;19903;-71
2023/01/09 07:16:36;;;;;;;;;;;23.70;66.10;;;;;;6306761;22;20243;-71
2023/01/09 07:19:02;;;;;;;;;;;23.70;65.80;;;;;;6307655;22;19907;-70
2023/01/09 07:21:29;;;;;;;;;;;23.70;65.80;;;;;;6305373;22;20218;-71
2023/01/09 07:23:55;;;;;;;;;;;23.70;66.10;;;;;;6307198;22;19903;-71
2023/01/09 07:26:22;;;;;;;;;;;23.70;67.30;;;;;;6306870;22;19972;-71
2023/01/09 07:28:49;;;;;;;;;;;23.70;67.50;;;;;;6307735;22;19903;-70
2023/01/09 07:31:15;;;;;;;;;;;23.70;66.80;;;;;;6307090;22;19907;-71
2023/01/09 07:33:42;;;;;;;;;;;23.70;67.20;;;;;;6307259;22;19903;-70
2023/01/09 23:36:51;;;;;;;;;;;24.50;62.50;;;;;;6257065;22;19929;-69
2023/01/09 23:39:17;;;;;;;;;;;24.30;63.20;;;;;;6275173;22;19922;-69
2023/01/09 23:44:29;;;;;;;;;;;24.40;64.70;;;;;;6274985;22;19950;-70
2023/01/09 23:46:56;;;;;;;;;;;24.50;65.20;;;;;;6274285;22;19907;-70
2023/01/09 23:49:22;;;;;;;;;;;24.60;63.00;;;;;;6275608;22;20332;-70
2023/01/09 23:51:49;;;;;;;;;;;24.60;64.40;;;;;;6275899;22;19927;-70
2023/01/09 23:54:16;;;;;;;;;;;24.30;64.60;;;;;;6275483;22;20321;-69
2023/01/09 23:56:42;;;;;;;;;;;24.30;64.30;;;;;;6275373;22;19903;-70
2023/01/09 23:59:11;;;;;;;;;;;24.40;65.60;;;;;;6275853;22;19915;-70
